createdAt,value
2024-02-06T00:00:01.961Z,82.53479226957487
2024-02-06T00:15:01.638Z,82.58992296713932
2024-02-06T00:30:02.344Z,82.606581554443
2024-02-06T00:45:02.133Z,82.91045811538014
2024-02-06T01:00:01.832Z,82.82198321989708
2024-02-06T01:15:02.519Z,82.5227201295522
2024-02-06T01:30:02.168Z,82.07537260074764
2024-02-06T01:45:01.851Z,81.97966534646794
2024-02-06T02:00:02.477Z,81.88287606324596
2024-02-06T02:15:02.133Z,82.16659428898427
2024-02-06T02:30:01.827Z,82.73969843189879
2024-02-06T02:45:02.449Z,83.18467795474962
2024-02-06T03:00:02.095Z,83.64033899970178
2024-02-06T03:15:01.803Z,84.08463031418339
2024-02-06T03:30:02.537Z,84.38031156717089
2024-02-06T03:45:02.202Z,84.52050469885093
2024-02-06T04:00:01.842Z,84.60590370326437
2024-02-06T04:15:02.578Z,84.7039273217633
2024-02-06T04:30:02.441Z,84.92170698983311
2024-02-06T04:45:02.121Z,84.89216108574705
2024-02-06T05:00:01.786Z,84.82932618531434
2024-02-06T05:15:02.536Z,84.78447796171977
2024-02-06T05:30:01.771Z,84.96038785885571
2024-02-06T05:45:02.428Z,85.44354396698515
2024-02-06T06:00:02.051Z,85.93672477058307
2024-02-06T06:15:01.809Z,86.72909028930542
2024-02-06T06:30:01.617Z,86.86490263525977
2024-02-06T06:45:02.343Z,87.15205544235936
2024-02-06T07:00:02.139Z,87.8685768796871
2024-02-06T07:15:02.007Z,87.98690148981714
2024-02-06T07:30:01.814Z,88.17254259616783
2024-02-06T07:45:02.493Z,88.50104739164982
2024-02-06T08:00:02.180Z,88.76845268046938
2024-02-06T08:15:01.935Z,88.94250099221948
2024-02-06T08:30:01.684Z,89.1084450190737
2024-02-06T08:45:02.363Z,89.06153941014787
2024-02-06T09:00:02.076Z,89.08905335548673
2024-02-06T09:15:01.869Z,89.31293949024612
2024-02-06T09:30:02.551Z,89.20345713005406
2024-02-06T09:45:02.211Z,89.24880148167311
2024-02-06T10:00:01.950Z,89.27961343311763
2024-02-06T10:15:01.720Z,89.39583948883539
2024-02-06T10:30:02.417Z,89.46107856178844
2024-02-06T10:45:04.271Z,89.48302045150585
2024-02-06T11:00:02.643Z,89.2969025682863
2024-02-06T11:15:02.515Z,88.93578605786674
2024-02-06T11:30:02.235Z,88.21227983607875
2024-02-06T11:45:01.913Z,87.61236652028313
2024-02-06T12:00:01.617Z,87.28680103718128
2024-02-06T12:15:02.364Z,86.98615983305031
2024-02-06T12:30:02.018Z,86.55277990436988
2024-02-06T12:45:02.287Z,86.07463315116604
2024-02-06T13:00:02.359Z,85.56004785297955
2024-02-06T13:15:02.370Z,84.93297408779976
2024-02-06T13:30:02.201Z,84.72019672709202
2024-02-06T13:45:01.814Z,84.57802101711859
2024-02-06T14:00:02.503Z,84.48809681081924
2024-02-06T14:15:02.160Z,84.36559694277965
2024-02-06T14:30:01.949Z,84.47782925427967
2024-02-06T14:45:01.679Z,84.30396972728556
2024-02-06T15:00:02.553Z,83.72369850458159
2024-02-06T15:15:02.335Z,83.32899834265334
2024-02-06T15:30:02.014Z,82.36522953447127
2024-02-06T15:45:01.681Z,82.00944324361605
2024-02-06T16:00:02.335Z,82.01187472947541
2024-02-06T16:15:02.074Z,82.2728126008855
2024-02-06T16:30:01.830Z,83.20130420570544
2024-02-06T16:45:02.523Z,84.5849376891611
2024-02-06T17:00:02.173Z,85.6532953477309
2024-02-06T17:15:01.883Z,86.1583982613723
2024-02-06T17:30:01.657Z,86.60511348837377
2024-02-06T17:45:04.844Z,86.6775216501877
2024-02-06T18:00:02.550Z,87.43019580390575
2024-02-06T18:15:02.250Z,87.38440978019894
2024-02-06T18:30:01.929Z,87.39232730193648
2024-02-06T18:45:01.594Z,87.358131454086
2024-02-06T19:00:02.266Z,86.9296488804504
2024-02-06T19:15:01.980Z,86.80897800086606
2024-02-06T19:30:01.746Z,87.04221646104585
2024-02-06T19:45:02.442Z,87.46412626381263
2024-02-06T20:00:02.116Z,87.86140269616736
2024-02-06T20:15:01.812Z,88.04930476798008
2024-02-06T20:30:02.562Z,88.44874498334819
2024-02-06T20:45:02.222Z,89.04668986040892
2024-02-06T21:00:01.874Z,89.37108466346866
2024-02-06T21:15:02.707Z,89.73397706099412
2024-02-06T21:30:02.547Z,89.47919839406485
2024-02-06T21:45:02.216Z,89.92241148339836
2024-02-06T22:00:01.962Z,90.12361623239899
2024-02-06T22:15:01.734Z,90.33845778763754
2024-02-06T22:30:02.437Z,90.27844953234339
2024-02-06T22:45:02.089Z,90.64300764958016
2024-02-06T23:00:01.778Z,90.75147067754298
2024-02-06T23:15:02.465Z,91.0729189913943
2024-02-06T23:30:02.153Z,90.15265702639064
2024-02-06T23:45:01.894Z,89.34253460030997
